createdAt,value
2023-05-09T00:00:05.591Z,1.50
2023-05-09T00:10:54.556Z,1.37
2023-05-09T00:14:22.288Z,1.70
2023-05-09T00:22:21.577Z,1.52
2023-05-09T00:26:03.766Z,1.37
2023-05-09T00:29:32.565Z,1.75
2023-05-09T00:33:06.962Z,1.60
2023-05-09T00:36:43.521Z,1.58
2023-05-09T00:40:18.193Z,1.40
2023-05-09T00:43:38.500Z,1.48
2023-05-09T00:51:02.588Z,1.40
2023-05-09T00:54:29.955Z,1.40
2023-05-09T00:57:47.794Z,1.40
2023-05-09T01:01:21.765Z,1.60
2023-05-09T01:04:29.054Z,1.67
2023-05-09T01:08:01.482Z,1.55
2023-05-09T01:11:53.691Z,1.35
2023-05-09T01:15:36.155Z,1.70
2023-05-09T01:19:09.426Z,1.55
2023-05-09T01:22:33.924Z,1.55
2023-05-09T01:26:19.934Z,1.65
2023-05-09T01:29:40.543Z,1.83
2023-05-09T01:33:06.012Z,1.42
2023-05-09T01:37:07.629Z,1.35
2023-05-09T01:40:42.991Z,1.90
2023-05-09T01:44:03.339Z,1.50
2023-05-09T01:47:23.218Z,1.40
2023-05-09T01:50:44.832Z,1.77
2023-05-09T01:54:04.974Z,1.45
2023-05-09T01:57:25.450Z,1.40
2023-05-09T02:01:01.324Z,1.40
2023-05-09T02:04:31.459Z,1.90
2023-05-09T02:08:11.702Z,1.37
2023-05-09T02:11:38.903Z,1.55
2023-05-09T02:18:18.190Z,1.92
2023-05-09T02:21:35.887Z,1.23
2023-05-09T02:24:52.952Z,1.90
2023-05-09T02:28:12.848Z,1.65
2023-05-09T02:31:48.657Z,1.60
2023-05-09T02:35:21.520Z,1.58
2023-05-09T02:38:50.425Z,1.77
2023-05-09T02:42:26.681Z,1.95
2023-05-09T02:45:44.740Z,1.90
2023-05-09T02:52:21.585Z,1.95
2023-05-09T02:55:42.879Z,1.17
2023-05-09T02:59:01.361Z,1.83
2023-05-09T03:02:36.846Z,1.40
2023-05-09T03:05:54.637Z,1.75
2023-05-09T03:09:22.702Z,1.48
2023-05-09T03:12:58.942Z,1.60
2023-05-09T03:16:28.587Z,1.70
2023-05-09T03:19:50.110Z,1.67
2023-05-09T03:23:30.651Z,1.67
2023-05-09T03:26:47.734Z,2.20
2023-05-09T03:30:21.927Z,1.92
2023-05-09T03:34:13.610Z,1.95
2023-05-09T03:37:35.356Z,1.60
2023-05-09T03:41:03.827Z,1.48
2023-05-09T03:44:21.704Z,1.98
2023-05-09T03:47:54.160Z,1.55
2023-05-09T03:51:29.268Z,1.62
2023-05-09T03:55:13.128Z,2.28
2023-05-09T03:58:40.882Z,1.90
2023-05-09T04:02:22.504Z,1.87
2023-05-09T04:05:57.138Z,2.03
2023-05-09T04:09:25.171Z,1.77
2023-05-09T04:12:45.352Z,1.73
2023-05-09T04:16:08.771Z,1.92
2023-05-09T04:19:27.327Z,1.73
2023-05-09T04:23:02.018Z,2.05
2023-05-09T04:26:22.005Z,1.70
2023-05-09T04:29:50.517Z,2.00
2023-05-09T04:33:24.889Z,1.98
2023-05-09T04:40:16.342Z,2.08
2023-05-09T04:47:32.762Z,1.77
2023-05-09T04:54:07.696Z,2.05
2023-05-09T04:57:41.694Z,1.67
2023-05-09T05:01:16.899Z,1.85
2023-05-09T05:05:10.816Z,2.17
2023-05-09T05:08:36.683Z,2.10
2023-05-09T05:12:09.619Z,1.65
2023-05-09T05:15:39.649Z,1.90
2023-05-09T05:19:09.796Z,1.60
2023-05-09T05:22:43.749Z,2.33
2023-05-09T05:26:18.115Z,1.35
2023-05-09T05:29:35.923Z,2.00
2023-05-09T05:32:53.128Z,1.95
2023-05-09T05:36:27.089Z,1.67
2023-05-09T05:40:04.937Z,2.00
2023-05-09T05:43:44.872Z,1.60
2023-05-09T05:47:24.009Z,2.05
2023-05-09T06:09:19.738Z,1.10
2023-05-09T06:16:19.204Z,0.82
2023-05-09T06:19:28.993Z,1.12
2023-05-09T06:23:22.694Z,1.12
2023-05-09T06:27:07.647Z,1.10
2023-05-09T06:30:49.011Z,0.75
2023-05-09T06:37:59.018Z,1.20
2023-05-09T06:41:17.081Z,0.82
2023-05-09T06:45:04.274Z,0.90
2023-05-09T06:48:24.406Z,0.90
2023-05-09T06:52:00.172Z,0.90
2023-05-09T06:55:34.272Z,0.77
2023-05-09T06:59:17.824Z,1.08
2023-05-09T07:02:21.123Z,0.80
2023-05-09T07:05:24.174Z,0.98
2023-05-09T07:08:27.461Z,1.10
2023-05-09T07:11:35.947Z,1.05
2023-05-09T07:14:38.773Z,1.10
2023-05-09T07:17:41.509Z,1.00
2023-05-09T07:20:44.900Z,0.98
2023-05-09T07:23:50.372Z,0.90
2023-05-09T07:26:55.980Z,0.90
2023-05-09T07:33:51.513Z,1.10
2023-05-09T07:37:27.841Z,0.90
2023-05-09T07:40:38.566Z,0.93
2023-05-09T07:43:47.679Z,1.00
2023-05-09T07:46:50.750Z,1.20
2023-05-09T07:49:56.565Z,1.10
2023-05-09T07:53:00.136Z,1.00
2023-05-09T07:56:02.854Z,0.80
2023-05-09T07:59:08.552Z,0.88
2023-05-09T08:02:11.128Z,0.95
2023-05-09T08:05:14.445Z,0.70
2023-05-09T08:08:17.691Z,0.77
2023-05-09T08:11:42.766Z,0.80
2023-05-09T08:14:48.473Z,1.25
2023-05-09T08:18:21.954Z,0.80
2023-05-09T08:21:24.899Z,0.80
2023-05-09T08:24:27.520Z,0.70
2023-05-09T08:27:33.545Z,0.80
2023-05-09T08:30:36.554Z,0.97
2023-05-09T08:34:05.888Z,1.05
2023-05-09T08:37:44.832Z,0.95
2023-05-09T08:44:35.107Z,0.70
2023-05-09T08:48:40.240Z,0.77
2023-05-09T08:52:12.236Z,0.70
2023-05-09T08:55:21.189Z,0.70
2023-05-09T08:58:39.169Z,0.52
2023-05-09T09:02:26.817Z,0.70
2023-05-09T09:06:54.034Z,0.60
2023-05-09T09:10:25.808Z,0.80
2023-05-09T09:13:45.441Z,0.70
2023-05-09T09:17:12.452Z,0.70
2023-05-09T09:20:57.725Z,0.75
2023-05-09T09:24:40.729Z,0.70
2023-05-09T09:28:04.346Z,0.60
2023-05-09T09:31:59.025Z,0.73
2023-05-09T09:35:40.542Z,0.80
2023-05-09T09:39:24.036Z,0.70
2023-05-09T09:43:02.167Z,0.80
2023-05-09T09:46:56.590Z,0.70
2023-05-09T09:51:11.398Z,0.60
2023-05-09T09:54:34.055Z,0.90
2023-05-09T09:58:22.180Z,0.70
2023-05-09T10:02:07.596Z,0.80
2023-05-09T10:09:48.754Z,1.00
2023-05-09T10:13:14.291Z,0.70
2023-05-09T10:16:52.123Z,0.80
2023-05-09T10:20:41.076Z,0.82
2023-05-09T10:23:47.773Z,0.80
2023-05-09T10:27:36.011Z,0.70
2023-05-09T10:31:03.714Z,0.70
2023-05-09T10:42:47.894Z,0.70
2023-05-09T10:50:22.531Z,0.80
2023-05-09T10:53:44.288Z,0.80
2023-05-09T10:56:49.443Z,0.90
2023-05-09T11:00:00.813Z,0.70
2023-05-09T11:03:09.495Z,0.70
2023-05-09T11:06:49.787Z,0.70
2023-05-09T11:10:17.324Z,0.60
2023-05-09T11:14:00.959Z,0.70
2023-05-09T11:17:23.642Z,0.70
2023-05-09T11:24:56.617Z,0.80
2023-05-09T11:28:52.747Z,0.82
2023-05-09T11:40:46.225Z,0.80
2023-05-09T11:44:21.974Z,0.70
2023-05-09T11:47:48.445Z,0.80
2023-05-09T11:50:51.362Z,0.88
2023-05-09T11:54:28.078Z,0.95
2023-05-09T11:58:10.581Z,0.60
2023-05-09T12:01:36.056Z,0.90
2023-05-09T12:05:18.818Z,1.00
2023-05-09T12:08:28.937Z,0.70
2023-05-09T12:11:52.684Z,0.90
2023-05-09T12:14:56.228Z,0.88
2023-05-09T12:18:32.124Z,0.70
2023-05-09T12:21:37.094Z,0.75
2023-05-09T12:24:45.004Z,0.70
2023-05-09T12:27:50.665Z,0.75
2023-05-09T12:31:27.231Z,0.80
2023-05-09T12:47:57.313Z,0.65
2023-05-09T12:51:22.003Z,0.80
2023-05-09T12:54:36.671Z,1.00
2023-05-09T12:58:03.610Z,0.80
2023-05-09T13:01:07.066Z,0.90
2023-05-09T13:04:12.636Z,0.60
2023-05-09T13:07:51.545Z,0.80
2023-05-09T13:11:17.383Z,0.80
2023-05-09T13:14:42.844Z,0.80
2023-05-09T13:17:56.081Z,0.60
2023-05-09T13:21:33.029Z,0.90
2023-05-09T13:25:16.215Z,0.85
2023-05-09T13:28:41.638Z,0.70
2023-05-09T13:32:14.701Z,0.70
2023-05-09T13:35:59.429Z,0.80
2023-05-09T13:39:34.285Z,0.68
2023-05-09T13:42:49.353Z,0.80
2023-05-09T13:45:59.817Z,0.70
2023-05-09T13:49:17.106Z,0.80
2023-05-09T13:52:48.025Z,0.80
2023-05-09T13:56:33.563Z,0.98
2023-05-09T13:59:58.467Z,0.70
2023-05-09T14:03:14.867Z,0.90
2023-05-09T14:07:04.103Z,0.60
2023-05-09T14:10:24.590Z,0.70
2023-05-09T14:14:13.711Z,0.90
2023-05-09T14:17:58.855Z,0.70
2023-05-09T14:21:40.388Z,0.82
2023-05-09T14:25:11.735Z,0.77
2023-05-09T14:28:50.260Z,0.80
2023-05-09T14:32:08.516Z,0.70
2023-05-09T14:35:14.073Z,0.70
2023-05-09T14:38:18.569Z,0.80
2023-05-09T14:41:26.973Z,0.80
2023-05-09T14:45:12.995Z,0.90
2023-05-09T14:48:20.061Z,0.80
2023-05-09T14:51:24.906Z,0.80
2023-05-09T14:54:30.122Z,0.70
2023-05-09T14:58:16.557Z,0.80
2023-05-09T15:01:41.847Z,0.70
2023-05-09T15:05:25.520Z,0.80
2023-05-09T15:09:11.076Z,0.90
2023-05-09T15:12:18.675Z,0.60
2023-05-09T15:15:45.278Z,0.80
2023-05-09T15:18:49.416Z,0.77
2023-05-09T15:21:52.359Z,0.68
2023-05-09T15:24:58.454Z,0.70
2023-05-09T15:28:36.511Z,0.80
2023-05-09T15:32:25.921Z,0.70
2023-05-09T15:35:50.218Z,0.70
2023-05-09T15:39:35.020Z,0.60
2023-05-09T15:43:18.266Z,0.70
2023-05-09T15:46:38.213Z,0.52
2023-05-09T15:50:16.765Z,0.60
2023-05-09T15:53:51.365Z,0.65
2023-05-09T15:57:17.603Z,0.60
2023-05-09T16:00:24.320Z,0.70
2023-05-09T16:07:58.919Z,0.75
2023-05-09T16:18:42.029Z,0.77
2023-05-09T16:21:46.572Z,0.60
2023-05-09T16:25:09.627Z,0.80
2023-05-09T16:28:28.200Z,0.60
2023-05-09T16:32:03.130Z,0.60
2023-05-09T16:39:37.853Z,0.95
2023-05-09T16:43:08.704Z,0.80
2023-05-09T16:46:15.634Z,0.62
2023-05-09T16:49:36.026Z,0.90
2023-05-09T16:53:26.417Z,0.60
2023-05-09T16:56:33.551Z,0.70
2023-05-09T16:59:38.523Z,0.60
2023-05-09T17:03:21.703Z,1.00
2023-05-09T17:06:30.500Z,0.70
2023-05-09T17:09:38.323Z,0.77
2023-05-09T17:12:42.707Z,0.50
2023-05-09T17:16:18.633Z,0.77
2023-05-09T17:20:22.071Z,0.77
2023-05-09T17:23:28.357Z,0.77
2023-05-09T17:26:32.218Z,0.80
2023-05-09T17:29:37.211Z,0.62
2023-05-09T17:32:42.861Z,0.70
2023-05-09T17:35:49.484Z,0.77
2023-05-09T17:38:54.260Z,0.70
2023-05-09T17:41:59.218Z,0.62
2023-05-09T17:45:06.452Z,0.80
2023-05-09T17:48:09.674Z,0.90
2023-05-09T17:51:12.708Z,0.90
2023-05-09T17:54:19.263Z,1.20
2023-05-09T17:57:22.948Z,1.00
2023-05-09T18:00:25.967Z,1.00
2023-05-09T18:03:29.132Z,1.00
2023-05-09T18:06:33.284Z,1.10
2023-05-09T18:09:36.704Z,1.00
2023-05-09T18:12:40.112Z,1.10
2023-05-09T18:15:43.102Z,1.00
2023-05-09T18:18:46.646Z,1.00
2023-05-09T18:21:51.243Z,1.12
2023-05-09T18:25:00.743Z,1.08
2023-05-09T18:28:03.590Z,1.25
2023-05-09T18:31:13.718Z,1.10
2023-05-09T18:34:37.756Z,1.10
2023-05-09T18:37:41.953Z,1.12
2023-05-09T18:40:47.363Z,1.70
2023-05-09T18:43:53.227Z,1.20
2023-05-09T18:46:57.955Z,1.30
2023-05-09T18:50:21.029Z,1.10
2023-05-09T18:53:26.305Z,1.20
2023-05-09T18:56:29.773Z,1.25
2023-05-09T18:59:33.594Z,1.75
2023-05-09T19:02:42.434Z,1.33
2023-05-09T19:06:05.577Z,1.10
2023-05-09T19:09:11.905Z,1.30
2023-05-09T19:12:16.745Z,1.15
2023-05-09T19:15:23.868Z,1.55
2023-05-09T19:18:26.936Z,1.45
2023-05-09T19:21:30.870Z,0.95
2023-05-09T19:24:38.170Z,1.17
2023-05-09T19:27:42.958Z,1.20
2023-05-09T19:30:47.034Z,1.40
2023-05-09T19:33:51.520Z,1.27
2023-05-09T19:36:54.950Z,1.45
2023-05-09T19:39:58.909Z,1.30
2023-05-09T19:43:22.322Z,1.25
2023-05-09T19:46:26.608Z,1.30
2023-05-09T19:49:30.014Z,1.20
2023-05-09T19:52:36.363Z,1.02
2023-05-09T19:55:39.477Z,0.95
2023-05-09T19:58:43.481Z,1.48
2023-05-09T20:01:47.643Z,1.20
2023-05-09T20:04:51.244Z,1.55
2023-05-09T20:07:56.303Z,1.70
2023-05-09T20:11:00.370Z,1.80
2023-05-09T20:14:03.861Z,2.10
2023-05-09T20:17:07.070Z,1.87
2023-05-09T20:20:11.347Z,1.60
2023-05-09T20:23:15.498Z,2.05
2023-05-09T20:26:19.018Z,2.15
2023-05-09T20:29:33.058Z,2.05
2023-05-09T20:32:35.817Z,1.60
2023-05-09T20:35:43.260Z,1.52
2023-05-09T20:38:45.934Z,1.60
2023-05-09T20:41:50.416Z,1.62
2023-05-09T20:44:55.373Z,1.48
2023-05-09T20:47:59.118Z,1.20
2023-05-09T20:51:02.123Z,1.40
2023-05-09T20:54:05.881Z,1.25
2023-05-09T20:57:08.625Z,1.35
2023-05-09T21:00:12.871Z,1.87
2023-05-09T21:03:18.493Z,1.62
2023-05-09T21:06:22.082Z,1.80
2023-05-09T21:09:25.249Z,1.37
2023-05-09T21:12:28.640Z,0.93
2023-05-09T21:15:31.752Z,1.27
2023-05-09T21:18:35.026Z,1.20
2023-05-09T21:21:37.949Z,1.20
2023-05-09T21:24:41.325Z,1.10
2023-05-09T21:27:44.590Z,1.30
2023-05-09T21:30:54.680Z,1.10
2023-05-09T21:33:59.500Z,1.08
